sensor_id;sensor_type;location;lat;lon;timestamp;P1;durP1;ratioP1;P2;durP2;ratioP2
15878;SDS011;61999;51.514;14.614;2022-09-13T00:01:03;2.30;;;2.10;;
15878;SDS011;61999;51.514;14.614;2022-09-13T00:03:31;3.03;;;2.40;;
15878;SDS011;61999;51.514;14.614;2022-09-13T00:06:07;2.23;;;2.03;;
15878;SDS011;61999;51.514;14.614;2022-09-13T00:08:36;3.20;;;2.87;;
15878;SDS011;61999;51.514;14.614;2022-09-13T00:11:05;2.97;;;2.77;;
15878;SDS011;61999;51.514;14.614;2022-09-13T00:13:34;3.57;;;2.50;;
15878;SDS011;61999;51.514;14.614;2022-09-13T00:16:02;2.90;;;2.60;;
15878;SDS011;61999;51.514;14.614;2022-09-13T00:18:30;2.60;;;2.40;;
15878;SDS011;61999;51.514;14.614;2022-09-13T00:21:04;2.40;;;2.30;;
15878;SDS011;61999;51.514;14.614;2022-09-13T00:23:37;2.60;;;2.40;;
15878;SDS011;61999;51.514;14.614;2022-09-13T00:26:07;2.40;;;2.20;;
15878;SDS011;61999;51.514;14.614;2022-09-13T00:28:38;4.83;;;2.80;;
15878;SDS011;61999;51.514;14.614;2022-09-13T00:31:07;2.50;;;2.30;;
15878;SDS011;61999;51.514;14.614;2022-09-13T00:33:36;3.17;;;2.37;;
15878;SDS011;61999;51.514;14.614;2022-09-13T00:36:04;3.17;;;2.30;;
15878;SDS011;61999;51.514;14.614;2022-09-13T00:38:36;2.50;;;2.30;;
15878;SDS011;61999;51.514;14.614;2022-09-13T00:41:06;2.70;;;2.47;;
15878;SDS011;61999;51.514;14.614;2022-09-13T00:43:46;2.23;;;2.13;;
15878;SDS011;61999;51.514;14.614;2022-09-13T00:46:19;2.50;;;2.30;;
15878;SDS011;61999;51.514;14.614;2022-09-13T00:48:57;2.70;;;2.43;;
15878;SDS011;61999;51.514;14.614;2022-09-13T00:51:33;2.73;;;2.50;;
15878;SDS011;61999;51.514;14.614;2022-09-13T00:54:02;3.20;;;2.90;;
15878;SDS011;61999;51.514;14.614;2022-09-13T00:56:32;2.53;;;2.33;;
15878;SDS011;61999;51.514;14.614;2022-09-13T00:59:08;2.77;;;2.57;;
15878;SDS011;61999;51.514;14.614;2022-09-13T01:01:43;2.87;;;2.57;;
15878;SDS011;61999;51.514;14.614;2022-09-13T01:04:15;2.63;;;2.43;;
15878;SDS011;61999;51.514;14.614;2022-09-13T01:06:51;3.50;;;2.43;;
15878;SDS011;61999;51.514;14.614;2022-09-13T01:09:27;3.20;;;2.90;;
15878;SDS011;61999;51.514;14.614;2022-09-13T01:11:59;3.63;;;3.03;;
15878;SDS011;61999;51.514;14.614;2022-09-13T01:14:35;4.13;;;2.97;;
15878;SDS011;61999;51.514;14.614;2022-09-13T01:17:04;3.60;;;3.30;;
15878;SDS011;61999;51.514;14.614;2022-09-13T01:19:33;3.10;;;2.90;;
15878;SDS011;61999;51.514;14.614;2022-09-13T01:22:10;3.17;;;2.90;;
15878;SDS011;61999;51.514;14.614;2022-09-13T01:29:13;2.47;;;2.33;;
15878;SDS011;61999;51.514;14.614;2022-09-13T01:32:13;2.47;;;2.20;;
15878;SDS011;61999;51.514;14.614;2022-09-13T01:34:58;3.37;;;3.07;;
15878;SDS011;61999;51.514;14.614;2022-09-13T01:37:45;2.80;;;2.60;;
15878;SDS011;61999;51.514;14.614;2022-09-13T01:40:23;2.67;;;2.47;;
15878;SDS011;61999;51.514;14.614;2022-09-13T01:43:14;3.10;;;2.90;;
15878;SDS011;61999;51.514;14.614;2022-09-13T01:46:01;2.77;;;2.33;;
15878;SDS011;61999;51.514;14.614;2022-09-13T01:48:35;2.90;;;2.70;;
15878;SDS011;61999;51.514;14.614;2022-09-13T01:51:22;2.77;;;2.57;;
15878;SDS011;61999;51.514;14.614;2022-09-13T01:54:03;2.90;;;2.70;;
15878;SDS011;61999;51.514;14.614;2022-09-13T01:56:47;2.70;;;2.50;;
15878;SDS011;61999;51.514;14.614;2022-09-13T01:59:28;3.37;;;2.60;;
15878;SDS011;61999;51.514;14.614;2022-09-13T02:02:06;3.37;;;3.07;;
15878;SDS011;61999;51.514;14.614;2022-09-13T02:04:45;2.80;;;2.60;;
15878;SDS011;61999;51.514;14.614;2022-09-13T02:07:21;2.90;;;2.70;;
15878;SDS011;61999;51.514;14.614;2022-09-13T02:09:59;3.33;;;3.10;;
15878;SDS011;61999;51.514;14.614;2022-09-13T02:12:35;3.07;;;2.63;;
15878;SDS011;61999;51.514;14.614;2022-09-13T02:15:10;4.73;;;3.93;;
15878;SDS011;61999;51.514;14.614;2022-09-13T02:17:44;3.87;;;3.30;;
15878;SDS011;61999;51.514;14.614;2022-09-13T02:20:20;3.30;;;3.00;;
15878;SDS011;61999;51.514;14.614;2022-09-13T02:22:55;3.27;;;3.00;;
15878;SDS011;61999;51.514;14.614;2022-09-13T02:25:29;3.40;;;3.20;;
15878;SDS011;61999;51.514;14.614;2022-09-13T02:28:03;3.60;;;3.30;;
15878;SDS011;61999;51.514;14.614;2022-09-13T02:30:37;2.87;;;2.67;;
15878;SDS011;61999;51.514;14.614;2022-09-13T02:33:14;3.90;;;3.60;;
15878;SDS011;61999;51.514;14.614;2022-09-13T02:35:52;3.50;;;3.20;;
15878;SDS011;61999;51.514;14.614;2022-09-13T02:38:30;4.00;;;3.70;;
15878;SDS011;61999;51.514;14.614;2022-09-13T02:41:04;3.27;;;2.97;;
15878;SDS011;61999;51.514;14.614;2022-09-13T02:43:44;3.07;;;2.87;;
15878;SDS011;61999;51.514;14.614;2022-09-13T02:46:20;3.23;;;2.93;;
15878;SDS011;61999;51.514;14.614;2022-09-13T02:49:03;3.07;;;2.87;;
15878;SDS011;61999;51.514;14.614;2022-09-13T02:51:44;3.33;;;3.03;;
15878;SDS011;61999;51.514;14.614;2022-09-13T02:54:23;3.07;;;2.87;;
15878;SDS011;61999;51.514;14.614;2022-09-13T02:57:00;3.50;;;3.20;;
15878;SDS011;61999;51.514;14.614;2022-09-13T02:59:36;2.77;;;2.57;;
15878;SDS011;61999;51.514;14.614;2022-09-13T03:02:04;3.77;;;3.17;;
15878;SDS011;61999;51.514;14.614;2022-09-13T03:04:36;4.30;;;3.90;;
15878;SDS011;61999;51.514;14.614;2022-09-13T03:07:07;3.90;;;3.60;;
15878;SDS011;61999;51.514;14.614;2022-09-13T03:09:38;4.93;;;3.80;;
15878;SDS011;61999;51.514;14.614;2022-09-13T03:12:25;4.57;;;4.20;;
15878;SDS011;61999;51.514;14.614;2022-09-13T03:15:17;4.60;;;4.20;;
15878;SDS011;61999;51.514;14.614;2022-09-13T03:18:05;3.77;;;3.50;;
15878;SDS011;61999;51.514;14.614;2022-09-13T03:20:48;3.53;;;3.23;;
15878;SDS011;61999;51.514;14.614;2022-09-13T03:23:45;4.13;;;3.80;;
15878;SDS011;61999;51.514;14.614;2022-09-13T03:26:30;4.27;;;3.87;;
15878;SDS011;61999;51.514;14.614;2022-09-13T03:29:24;4.67;;;4.27;;
15878;SDS011;61999;51.514;14.614;2022-09-13T03:32:01;4.63;;;4.23;;
15878;SDS011;61999;51.514;14.614;2022-09-13T03:34:44;4.87;;;4.50;;
15878;SDS011;61999;51.514;14.614;2022-09-13T03:37:23;5.67;;;5.17;;
15878;SDS011;61999;51.514;14.614;2022-09-13T03:40:01;4.50;;;4.10;;
15878;SDS011;61999;51.514;14.614;2022-09-13T03:42:37;4.87;;;4.57;;
15878;SDS011;61999;51.514;14.614;2022-09-13T03:45:14;5.20;;;4.70;;
15878;SDS011;61999;51.514;14.614;2022-09-13T03:47:49;4.53;;;4.13;;
15878;SDS011;61999;51.514;14.614;2022-09-13T03:50:21;4.90;;;4.40;;
15878;SDS011;61999;51.514;14.614;2022-09-13T03:52:53;5.50;;;5.00;;
15878;SDS011;61999;51.514;14.614;2022-09-13T03:55:29;5.47;;;4.97;;
15878;SDS011;61999;51.514;14.614;2022-09-13T03:58:03;5.23;;;4.77;;
15878;SDS011;61999;51.514;14.614;2022-09-13T04:00:31;4.93;;;4.40;;
15878;SDS011;61999;51.514;14.614;2022-09-13T04:02:59;5.10;;;4.63;;
15878;SDS011;61999;51.514;14.614;2022-09-13T04:05:27;5.40;;;4.90;;
15878;SDS011;61999;51.514;14.614;2022-09-13T04:07:55;5.70;;;5.20;;
15878;SDS011;61999;51.514;14.614;2022-09-13T04:10:22;4.90;;;4.50;;
15878;SDS011;61999;51.514;14.614;2022-09-13T04:12:52;4.57;;;4.20;;
15878;SDS011;61999;51.514;14.614;2022-09-13T04:15:21;4.40;;;3.97;;
15878;SDS011;61999;51.514;14.614;2022-09-13T04:17:49;4.27;;;3.97;;
15878;SDS011;61999;51.514;14.614;2022-09-13T04:20:17;4.43;;;3.77;;
15878;SDS011;61999;51.514;14.614;2022-09-13T04:22:49;4.33;;;4.03;;
15878;SDS011;61999;51.514;14.614;2022-09-13T04:25:18;6.97;;;4.67;;
15878;SDS011;61999;51.514;14.614;2022-09-13T04:27:47;6.23;;;4.60;;
15878;SDS011;61999;51.514;14.614;2022-09-13T04:30:20;5.53;;;5.03;;
15878;SDS011;61999;51.514;14.614;2022-09-13T04:32:49;5.63;;;5.13;;
15878;SDS011;61999;51.514;14.614;2022-09-13T04:35:17;5.90;;;5.27;;
15878;SDS011;61999;51.514;14.614;2022-09-13T04:37:45;5.03;;;4.63;;
15878;SDS011;61999;51.514;14.614;2022-09-13T04:40:13;5.03;;;4.53;;
15878;SDS011;61999;51.514;14.614;2022-09-13T04:42:42;5.27;;;4.80;;
15878;SDS011;61999;51.514;14.614;2022-09-13T04:45:11;5.03;;;4.60;;
15878;SDS011;61999;51.514;14.614;2022-09-13T04:47:40;5.97;;;5.30;;
15878;SDS011;61999;51.514;14.614;2022-09-13T04:50:08;5.77;;;5.27;;
15878;SDS011;61999;51.514;14.614;2022-09-13T04:52:36;5.80;;;5.33;;
15878;SDS011;61999;51.514;14.614;2022-09-13T04:55:05;5.47;;;5.00;;
15878;SDS011;61999;51.514;14.614;2022-09-13T04:57:36;5.40;;;4.90;;
15878;SDS011;61999;51.514;14.614;2022-09-13T05:00:04;4.93;;;4.53;;
15878;SDS011;61999;51.514;14.614;2022-09-13T05:02:34;5.20;;;4.80;;
15878;SDS011;61999;51.514;14.614;2022-09-13T05:05:03;6.17;;;5.00;;
15878;SDS011;61999;51.514;14.614;2022-09-13T05:07:32;4.47;;;4.10;;
15878;SDS011;61999;51.514;14.614;2022-09-13T05:10:00;4.60;;;4.20;;
15878;SDS011;61999;51.514;14.614;2022-09-13T05:12:28;4.83;;;4.43;;
15878;SDS011;61999;51.514;14.614;2022-09-13T05:14:56;4.93;;;4.53;;
15878;SDS011;61999;51.514;14.614;2022-09-13T05:17:24;4.43;;;4.13;;
15878;SDS011;61999;51.514;14.614;2022-09-13T05:19:52;4.60;;;4.20;;
15878;SDS011;61999;51.514;14.614;2022-09-13T05:22:21;4.67;;;4.27;;
15878;SDS011;61999;51.514;14.614;2022-09-13T05:24:49;6.77;;;4.80;;
15878;SDS011;61999;51.514;14.614;2022-09-13T05:27:17;6.00;;;5.50;;
15878;SDS011;61999;51.514;14.614;2022-09-13T05:29:45;5.07;;;4.67;;
15878;SDS011;61999;51.514;14.614;2022-09-13T05:32:13;6.50;;;5.90;;
15878;SDS011;61999;51.514;14.614;2022-09-13T05:34:41;5.90;;;5.40;;
15878;SDS011;61999;51.514;14.614;2022-09-13T05:37:09;5.17;;;4.77;;
15878;SDS011;61999;51.514;14.614;2022-09-13T05:39:38;5.67;;;4.50;;
15878;SDS011;61999;51.514;14.614;2022-09-13T05:42:19;4.93;;;4.50;;
15878;SDS011;61999;51.514;14.614;2022-09-13T05:44:47;5.17;;;4.67;;
15878;SDS011;61999;51.514;14.614;2022-09-13T05:47:15;4.77;;;4.37;;
15878;SDS011;61999;51.514;14.614;2022-09-13T05:49:43;4.80;;;4.30;;
15878;SDS011;61999;51.514;14.614;2022-09-13T05:52:27;5.40;;;4.90;;
15878;SDS011;61999;51.514;14.614;2022-09-13T05:54:56;4.90;;;4.40;;
15878;SDS011;61999;51.514;14.614;2022-09-13T05:57:24;5.00;;;4.43;;
15878;SDS011;61999;51.514;14.614;2022-09-13T05:59:52;4.80;;;3.97;;
15878;SDS011;61999;51.514;14.614;2022-09-13T06:02:20;4.10;;;3.67;;
15878;SDS011;61999;51.514;14.614;2022-09-13T06:04:51;4.87;;;4.10;;
15878;SDS011;61999;51.514;14.614;2022-09-13T06:07:19;4.77;;;4.40;;
15878;SDS011;61999;51.514;14.614;2022-09-13T06:09:47;4.83;;;4.37;;
15878;SDS011;61999;51.514;14.614;2022-09-13T06:12:16;7.30;;;5.00;;
15878;SDS011;61999;51.514;14.614;2022-09-13T06:14:44;4.87;;;4.40;;
15878;SDS011;61999;51.514;14.614;2022-09-13T06:17:12;4.40;;;4.00;;
15878;SDS011;61999;51.514;14.614;2022-09-13T06:19:40;4.63;;;4.23;;
15878;SDS011;61999;51.514;14.614;2022-09-13T06:22:08;6.20;;;4.87;;
15878;SDS011;61999;51.514;14.614;2022-09-13T06:24:36;5.73;;;5.20;;
15878;SDS011;61999;51.514;14.614;2022-09-13T06:27:04;5.10;;;4.70;;
15878;SDS011;61999;51.514;14.614;2022-09-13T06:29:33;5.30;;;4.40;;
15878;SDS011;61999;51.514;14.614;2022-09-13T06:32:01;6.50;;;4.93;;
15878;SDS011;61999;51.514;14.614;2022-09-13T06:34:29;4.20;;;3.90;;
15878;SDS011;61999;51.514;14.614;2022-09-13T06:36:58;4.90;;;4.50;;
15878;SDS011;61999;51.514;14.614;2022-09-13T06:39:25;4.70;;;3.90;;
15878;SDS011;61999;51.514;14.614;2022-09-13T06:41:54;4.43;;;4.13;;
15878;SDS011;61999;51.514;14.614;2022-09-13T06:44:22;5.00;;;4.50;;
15878;SDS011;61999;51.514;14.614;2022-09-13T06:46:51;5.57;;;4.87;;
15878;SDS011;61999;51.514;14.614;2022-09-13T06:49:19;4.47;;;4.07;;
15878;SDS011;61999;51.514;14.614;2022-09-13T06:51:47;5.50;;;4.73;;
15878;SDS011;61999;51.514;14.614;2022-09-13T06:54:15;4.50;;;4.10;;
15878;SDS011;61999;51.514;14.614;2022-09-13T06:56:43;4.80;;;4.17;;
15878;SDS011;61999;51.514;14.614;2022-09-13T06:59:11;5.40;;;4.03;;
15878;SDS011;61999;51.514;14.614;2022-09-13T07:01:39;5.07;;;4.20;;
15878;SDS011;61999;51.514;14.614;2022-09-13T07:04:12;4.13;;;3.73;;
15878;SDS011;61999;51.514;14.614;2022-09-13T07:06:42;4.63;;;4.23;;
15878;SDS011;61999;51.514;14.614;2022-09-13T07:09:13;5.60;;;4.67;;
15878;SDS011;61999;51.514;14.614;2022-09-13T07:11:43;4.43;;;4.00;;
15878;SDS011;61999;51.514;14.614;2022-09-13T07:14:13;3.80;;;3.50;;
15878;SDS011;61999;51.514;14.614;2022-09-13T07:16:44;4.37;;;3.97;;
15878;SDS011;61999;51.514;14.614;2022-09-13T07:19:14;4.53;;;4.13;;
15878;SDS011;61999;51.514;14.614;2022-09-13T07:21:45;4.67;;;4.23;;
15878;SDS011;61999;51.514;14.614;2022-09-13T07:24:18;4.03;;;3.73;;
15878;SDS011;61999;51.514;14.614;2022-09-13T07:26:48;6.80;;;4.47;;
15878;SDS011;61999;51.514;14.614;2022-09-13T07:29:17;4.30;;;3.77;;
15878;SDS011;61999;51.514;14.614;2022-09-13T07:31:49;4.07;;;3.40;;
15878;SDS011;61999;51.514;14.614;2022-09-13T07:34:21;3.97;;;3.67;;
15878;SDS011;61999;51.514;14.614;2022-09-13T07:36:51;4.63;;;3.70;;
15878;SDS011;61999;51.514;14.614;2022-09-13T07:39:19;4.20;;;3.80;;
15878;SDS011;61999;51.514;14.614;2022-09-13T07:41:48;5.07;;;4.10;;
15878;SDS011;61999;51.514;14.614;2022-09-13T07:44:16;4.00;;;3.70;;
15878;SDS011;61999;51.514;14.614;2022-09-13T07:46:44;4.37;;;4.03;;
15878;SDS011;61999;51.514;14.614;2022-09-13T07:49:12;4.40;;;4.00;;
15878;SDS011;61999;51.514;14.614;2022-09-13T07:51:44;5.77;;;3.83;;
15878;SDS011;61999;51.514;14.614;2022-09-13T07:54:16;3.87;;;3.57;;
15878;SDS011;61999;51.514;14.614;2022-09-13T07:56:50;4.10;;;3.70;;
15878;SDS011;61999;51.514;14.614;2022-09-13T07:59:18;4.17;;;3.50;;
15878;SDS011;61999;51.514;14.614;2022-09-13T08:01:46;4.57;;;3.90;;
15878;SDS011;61999;51.514;14.614;2022-09-13T08:04:17;4.53;;;3.87;;
15878;SDS011;61999;51.514;14.614;2022-09-13T08:06:48;5.67;;;4.33;;
15878;SDS011;61999;51.514;14.614;2022-09-13T08:09:16;4.43;;;3.80;;
15878;SDS011;61999;51.514;14.614;2022-09-13T08:11:46;4.63;;;4.20;;
15878;SDS011;61999;51.514;14.614;2022-09-13T08:14:18;4.67;;;4.23;;
15878;SDS011;61999;51.514;14.614;2022-09-13T08:16:49;4.90;;;4.00;;
15878;SDS011;61999;51.514;14.614;2022-09-13T08:19:21;3.83;;;3.53;;
15878;SDS011;61999;51.514;14.614;2022-09-13T08:21:50;4.47;;;4.07;;
15878;SDS011;61999;51.514;14.614;2022-09-13T08:24:18;4.40;;;4.00;;
15878;SDS011;61999;51.514;14.614;2022-09-13T08:26:48;5.40;;;4.37;;
15878;SDS011;61999;51.514;14.614;2022-09-13T08:29:17;5.27;;;4.77;;
15878;SDS011;61999;51.514;14.614;2022-09-13T08:31:45;5.67;;;4.40;;
15878;SDS011;61999;51.514;14.614;2022-09-13T08:34:13;5.03;;;4.43;;
15878;SDS011;61999;51.514;14.614;2022-09-13T08:36:43;4.90;;;4.50;;
15878;SDS011;61999;51.514;14.614;2022-09-13T08:39:13;6.93;;;5.60;;
15878;SDS011;61999;51.514;14.614;2022-09-13T08:41:47;5.20;;;4.70;;
15878;SDS011;61999;51.514;14.614;2022-09-13T08:44:27;5.20;;;4.80;;
15878;SDS011;61999;51.514;14.614;2022-09-13T08:47:02;4.73;;;4.37;;
15878;SDS011;61999;51.514;14.614;2022-09-13T08:49:50;4.70;;;4.30;;
15878;SDS011;61999;51.514;14.614;2022-09-13T08:52:27;6.30;;;5.30;;
15878;SDS011;61999;51.514;14.614;2022-09-13T08:55:02;5.57;;;5.07;;
15878;SDS011;61999;51.514;14.614;2022-09-13T08:57:49;6.03;;;5.10;;
15878;SDS011;61999;51.514;14.614;2022-09-13T09:00:28;5.10;;;4.60;;
15878;SDS011;61999;51.514;14.614;2022-09-13T09:03:09;4.67;;;4.33;;
15878;SDS011;61999;51.514;14.614;2022-09-13T09:05:50;6.47;;;4.27;;
15878;SDS011;61999;51.514;14.614;2022-09-13T09:08:24;3.90;;;3.60;;
15878;SDS011;61999;51.514;14.614;2022-09-13T09:11:02;4.47;;;4.07;;
15878;SDS011;61999;51.514;14.614;2022-09-13T09:13:44;5.70;;;4.37;;
15878;SDS011;61999;51.514;14.614;2022-09-13T09:16:25;4.63;;;4.23;;
15878;SDS011;61999;51.514;14.614;2022-09-13T09:19:05;3.77;;;3.47;;
15878;SDS011;61999;51.514;14.614;2022-09-13T09:21:43;4.87;;;4.47;;
15878;SDS011;61999;51.514;14.614;2022-09-13T09:24:17;4.77;;;4.37;;
15878;SDS011;61999;51.514;14.614;2022-09-13T09:26:49;5.07;;;4.67;;
15878;SDS011;61999;51.514;14.614;2022-09-13T09:29:20;4.93;;;4.53;;
15878;SDS011;61999;51.514;14.614;2022-09-13T09:31:53;4.40;;;4.00;;
15878;SDS011;61999;51.514;14.614;2022-09-13T09:34:39;5.67;;;5.00;;
15878;SDS011;61999;51.514;14.614;2022-09-13T09:37:24;5.30;;;4.80;;
15878;SDS011;61999;51.514;14.614;2022-09-13T09:39:57;5.43;;;4.80;;
15878;SDS011;61999;51.514;14.614;2022-09-13T09:42:31;5.40;;;4.90;;
15878;SDS011;61999;51.514;14.614;2022-09-13T09:45:16;5.43;;;4.70;;
15878;SDS011;61999;51.514;14.614;2022-09-13T09:47:53;4.93;;;4.47;;
15878;SDS011;61999;51.514;14.614;2022-09-13T09:50:27;5.10;;;4.60;;
15878;SDS011;61999;51.514;14.614;2022-09-13T09:53:02;6.93;;;4.40;;
15878;SDS011;61999;51.514;14.614;2022-09-13T09:55:36;5.70;;;4.10;;
15878;SDS011;61999;51.514;14.614;2022-09-13T09:58:14;4.10;;;3.80;;
15878;SDS011;61999;51.514;14.614;2022-09-13T10:00:52;4.97;;;4.47;;
15878;SDS011;61999;51.514;14.614;2022-09-13T10:03:24;5.07;;;3.80;;
15878;SDS011;61999;51.514;14.614;2022-09-13T10:06:02;6.60;;;4.77;;
15878;SDS011;61999;51.514;14.614;2022-09-13T10:08:35;4.40;;;4.00;;
15878;SDS011;61999;51.514;14.614;2022-09-13T10:11:06;4.83;;;4.33;;
15878;SDS011;61999;51.514;14.614;2022-09-13T10:13:37;4.07;;;3.77;;
15878;SDS011;61999;51.514;14.614;2022-09-13T10:16:06;4.10;;;3.80;;
15878;SDS011;61999;51.514;14.614;2022-09-13T10:18:52;4.30;;;4.00;;
15878;SDS011;61999;51.514;14.614;2022-09-13T10:21:21;8.33;;;4.47;;
15878;SDS011;61999;51.514;14.614;2022-09-13T10:23:51;4.13;;;3.80;;
15878;SDS011;61999;51.514;14.614;2022-09-13T10:26:44;3.77;;;3.47;;
15878;SDS011;61999;51.514;14.614;2022-09-13T10:29:14;4.33;;;4.00;;
15878;SDS011;61999;51.514;14.614;2022-09-13T10:31:44;4.40;;;4.00;;
15878;SDS011;61999;51.514;14.614;2022-09-13T10:34:19;4.40;;;4.00;;
15878;SDS011;61999;51.514;14.614;2022-09-13T10:36:52;4.23;;;3.80;;
15878;SDS011;61999;51.514;14.614;2022-09-13T10:39:25;4.63;;;3.80;;
15878;SDS011;61999;51.514;14.614;2022-09-13T10:41:56;3.93;;;3.63;;
15878;SDS011;61999;51.514;14.614;2022-09-13T10:44:31;4.20;;;3.90;;
15878;SDS011;61999;51.514;14.614;2022-09-13T10:47:09;3.90;;;3.60;;
15878;SDS011;61999;51.514;14.614;2022-09-13T10:49:47;4.33;;;3.60;;
15878;SDS011;61999;51.514;14.614;2022-09-13T10:52:25;3.67;;;3.37;;
15878;SDS011;61999;51.514;14.614;2022-09-13T10:58:17;3.93;;;3.50;;
15878;SDS011;61999;51.514;14.614;2022-09-13T11:00:53;3.80;;;3.50;;
15878;SDS011;61999;51.514;14.614;2022-09-13T11:07:14;3.80;;;3.50;;
15878;SDS011;61999;51.514;14.614;2022-09-13T11:10:00;4.10;;;3.80;;
15878;SDS011;61999;51.514;14.614;2022-09-13T11:12:39;3.67;;;3.37;;
15878;SDS011;61999;51.514;14.614;2022-09-13T11:15:20;3.70;;;3.50;;
15878;SDS011;61999;51.514;14.614;2022-09-13T11:21:23;4.00;;;3.40;;
15878;SDS011;61999;51.514;14.614;2022-09-13T11:24:12;3.87;;;3.47;;
15878;SDS011;61999;51.514;14.614;2022-09-13T11:27:07;3.27;;;2.97;;
15878;SDS011;61999;51.514;14.614;2022-09-13T11:29:57;3.57;;;3.27;;
15878;SDS011;61999;51.514;14.614;2022-09-13T11:32:45;3.23;;;3.03;;
15878;SDS011;61999;51.514;14.614;2022-09-13T11:35:40;3.77;;;3.47;;
15878;SDS011;61999;51.514;14.614;2022-09-13T11:38:20;3.80;;;3.27;;
15878;SDS011;61999;51.514;14.614;2022-09-13T11:41:12;3.90;;;3.50;;
15878;SDS011;61999;51.514;14.614;2022-09-13T11:44:02;3.83;;;3.53;;
15878;SDS011;61999;51.514;14.614;2022-09-13T11:47:10;3.87;;;3.57;;
15878;SDS011;61999;51.514;14.614;2022-09-13T11:49:53;3.87;;;3.57;;
15878;SDS011;61999;51.514;14.614;2022-09-13T11:52:48;3.90;;;3.60;;
15878;SDS011;61999;51.514;14.614;2022-09-13T11:55:36;3.90;;;3.60;;
15878;SDS011;61999;51.514;14.614;2022-09-13T11:58:12;4.33;;;3.70;;
15878;SDS011;61999;51.514;14.614;2022-09-13T12:00:47;3.70;;;3.40;;
15878;SDS011;61999;51.514;14.614;2022-09-13T12:03:22;3.27;;;3.00;;
15878;SDS011;61999;51.514;14.614;2022-09-13T12:06:00;3.10;;;2.90;;
15878;SDS011;61999;51.514;14.614;2022-09-13T12:08:35;2.93;;;2.73;;
15878;SDS011;61999;51.514;14.614;2022-09-13T12:11:12;3.57;;;3.20;;
15878;SDS011;61999;51.514;14.614;2022-09-13T12:13:47;3.80;;;3.47;;
15878;SDS011;61999;51.514;14.614;2022-09-13T12:16:22;3.50;;;3.20;;
15878;SDS011;61999;51.514;14.614;2022-09-13T12:18:59;3.27;;;3.07;;
15878;SDS011;61999;51.514;14.614;2022-09-13T12:21:34;3.10;;;2.80;;
15878;SDS011;61999;51.514;14.614;2022-09-13T12:24:12;3.30;;;3.10;;
15878;SDS011;61999;51.514;14.614;2022-09-13T12:26:47;2.97;;;2.77;;
15878;SDS011;61999;51.514;14.614;2022-09-13T12:29:24;3.67;;;2.87;;
15878;SDS011;61999;51.514;14.614;2022-09-13T12:32:02;3.23;;;2.73;;
15878;SDS011;61999;51.514;14.614;2022-09-13T12:34:37;2.73;;;2.53;;
15878;SDS011;61999;51.514;14.614;2022-09-13T12:37:16;3.00;;;2.80;;
15878;SDS011;61999;51.514;14.614;2022-09-13T12:40:31;3.30;;;3.10;;
15878;SDS011;61999;51.514;14.614;2022-09-13T12:43:26;2.60;;;2.40;;
15878;SDS011;61999;51.514;14.614;2022-09-13T12:46:37;2.90;;;2.70;;
15878;SDS011;61999;51.514;14.614;2022-09-13T12:49:37;2.60;;;2.40;;
15878;SDS011;61999;51.514;14.614;2022-09-13T12:52:26;3.00;;;2.80;;
15878;SDS011;61999;51.514;14.614;2022-09-13T12:58:20;3.00;;;2.80;;
15878;SDS011;61999;51.514;14.614;2022-09-13T13:01:19;2.90;;;2.70;;
15878;SDS011;61999;51.514;14.614;2022-09-13T13:03:51;2.90;;;2.60;;
15878;SDS011;61999;51.514;14.614;2022-09-13T13:06:32;3.57;;;3.37;;
15878;SDS011;61999;51.514;14.614;2022-09-13T13:09:06;3.67;;;3.30;;
15878;SDS011;61999;51.514;14.614;2022-09-13T13:11:54;3.03;;;2.73;;
15878;SDS011;61999;51.514;14.614;2022-09-13T13:14:26;3.13;;;2.83;;
15878;SDS011;61999;51.514;14.614;2022-09-13T13:23:14;3.00;;;2.80;;
15878;SDS011;61999;51.514;14.614;2022-09-13T13:26:00;3.07;;;2.80;;
15878;SDS011;61999;51.514;14.614;2022-09-13T13:28:50;2.77;;;2.57;;
15878;SDS011;61999;51.514;14.614;2022-09-13T13:31:39;3.40;;;3.20;;
15878;SDS011;61999;51.514;14.614;2022-09-13T13:37:24;4.13;;;3.47;;
15878;SDS011;61999;51.514;14.614;2022-09-13T13:40:10;3.83;;;3.53;;
15878;SDS011;61999;51.514;14.614;2022-09-13T13:43:02;3.47;;;3.23;;
15878;SDS011;61999;51.514;14.614;2022-09-13T13:45:57;3.37;;;3.17;;
15878;SDS011;61999;51.514;14.614;2022-09-13T13:48:51;3.60;;;3.30;;
15878;SDS011;61999;51.514;14.614;2022-09-13T13:51:22;4.67;;;3.10;;
15878;SDS011;61999;51.514;14.614;2022-09-13T13:53:56;3.07;;;2.87;;
15878;SDS011;61999;51.514;14.614;2022-09-13T13:56:55;3.60;;;3.30;;
15878;SDS011;61999;51.514;14.614;2022-09-13T13:59:25;3.50;;;3.20;;
15878;SDS011;61999;51.514;14.614;2022-09-13T14:01:59;3.53;;;3.23;;
15878;SDS011;61999;51.514;14.614;2022-09-13T14:04:33;3.30;;;3.10;;
15878;SDS011;61999;51.514;14.614;2022-09-13T14:07:26;3.37;;;3.07;;
15878;SDS011;61999;51.514;14.614;2022-09-13T14:10:17;3.20;;;2.90;;
15878;SDS011;61999;51.514;14.614;2022-09-13T14:12:59;2.90;;;2.70;;
15878;SDS011;61999;51.514;14.614;2022-09-13T14:15:49;3.40;;;3.10;;
15878;SDS011;61999;51.514;14.614;2022-09-13T14:18:33;3.67;;;3.30;;
15878;SDS011;61999;51.514;14.614;2022-09-13T14:21:18;3.37;;;3.10;;
15878;SDS011;61999;51.514;14.614;2022-09-13T14:23:50;5.70;;;3.20;;
15878;SDS011;61999;51.514;14.614;2022-09-13T14:26:34;3.73;;;2.90;;
15878;SDS011;61999;51.514;14.614;2022-09-13T14:29:05;3.20;;;3.00;;
15878;SDS011;61999;51.514;14.614;2022-09-13T14:31:34;3.50;;;3.17;;
15878;SDS011;61999;51.514;14.614;2022-09-13T14:34:05;3.53;;;3.27;;
15878;SDS011;61999;51.514;14.614;2022-09-13T14:36:51;3.50;;;3.20;;
15878;SDS011;61999;51.514;14.614;2022-09-13T14:39:22;3.80;;;3.50;;
15878;SDS011;61999;51.514;14.614;2022-09-13T14:41:56;3.10;;;2.90;;
15878;SDS011;61999;51.514;14.614;2022-09-13T14:44:27;3.67;;;3.23;;
15878;SDS011;61999;51.514;14.614;2022-09-13T14:46:58;4.00;;;3.40;;
15878;SDS011;61999;51.514;14.614;2022-09-13T14:49:38;3.20;;;2.90;;
15878;SDS011;61999;51.514;14.614;2022-09-13T14:52:14;3.23;;;3.00;;
15878;SDS011;61999;51.514;14.614;2022-09-13T14:54:53;3.00;;;2.80;;
15878;SDS011;61999;51.514;14.614;2022-09-13T14:57:29;2.80;;;2.60;;
15878;SDS011;61999;51.514;14.614;2022-09-13T15:00:04;3.20;;;3.00;;
15878;SDS011;61999;51.514;14.614;2022-09-13T15:02:42;3.37;;;3.17;;
15878;SDS011;61999;51.514;14.614;2022-09-13T15:05:18;4.10;;;3.80;;
15878;SDS011;61999;51.514;14.614;2022-09-13T15:07:49;4.73;;;3.83;;
15878;SDS011;61999;51.514;14.614;2022-09-13T15:10:20;3.70;;;3.40;;
15878;SDS011;61999;51.514;14.614;2022-09-13T15:12:52;3.60;;;3.30;;
15878;SDS011;61999;51.514;14.614;2022-09-13T15:15:33;4.33;;;3.60;;
15878;SDS011;61999;51.514;14.614;2022-09-13T15:18:04;4.57;;;4.13;;
15878;SDS011;61999;51.514;14.614;2022-09-13T15:20:52;3.83;;;3.50;;
15878;SDS011;61999;51.514;14.614;2022-09-13T15:23:24;3.83;;;3.40;;
15878;SDS011;61999;51.514;14.614;2022-09-13T15:25:55;5.00;;;3.70;;
15878;SDS011;61999;51.514;14.614;2022-09-13T15:28:28;4.13;;;3.83;;
15878;SDS011;61999;51.514;14.614;2022-09-13T15:31:18;3.63;;;3.33;;
15878;SDS011;61999;51.514;14.614;2022-09-13T15:33:48;3.63;;;3.33;;
15878;SDS011;61999;51.514;14.614;2022-09-13T15:36:47;3.10;;;2.90;;
15878;SDS011;61999;51.514;14.614;2022-09-13T15:39:41;3.37;;;3.10;;
15878;SDS011;61999;51.514;14.614;2022-09-13T15:42:13;4.17;;;3.70;;
15878;SDS011;61999;51.514;14.614;2022-09-13T15:44:42;3.87;;;3.57;;
15878;SDS011;61999;51.514;14.614;2022-09-13T15:47:11;3.73;;;3.43;;
15878;SDS011;61999;51.514;14.614;2022-09-13T15:49:48;4.93;;;3.77;;